Time;durP1;ratioP1;P1;durP2;ratioP2;P2;SDS_P1;SDS_P2;PMS_P1;PMS_P2;Temp;Humidity;BMP_temperature;BMP_pressure;BME280_temperature;BME280_humidity;BME280_pressure;Samples;Min_cycle;Max_cycle;Signal;HPM_P1;HPM_P2
2022/09/09 00:00:23;;;;;;;1.13;1.03;;;18.60;99.90;;;;;;5037516;28;20872;-69
2022/09/09 00:02:55;;;;;;;0.73;0.73;;;18.60;99.90;;;;;;5048573;28;20454;-68
2022/09/09 00:05:35;;;;;;;0.90;0.80;;;18.60;99.90;;;;;;5047921;28;20454;-68
2022/09/09 00:08:03;;;;;;;1.17;0.80;;;18.60;99.90;;;;;;5049915;28;20898;-69
2022/09/09 00:10:41;;;;;;;1.93;1.17;;;18.60;99.90;;;;;;5047798;28;20974;-68
2022/09/09 00:13:23;;;;;;;1.10;1.00;;;18.50;99.90;;;;;;5047904;28;20509;-69
2022/09/09 00:16:02;;;;;;;1.63;0.90;;;18.40;99.90;;;;;;5042516;28;20489;-69
2022/09/09 00:18:33;;;;;;;1.93;1.03;;;18.40;99.90;;;;;;5049149;28;21004;-68
2022/09/09 00:21:06;;;;;;;1.40;1.00;;;18.30;99.90;;;;;;5028269;28;20451;-68
2022/09/09 00:23:39;;;;;;;2.30;1.10;;;18.30;99.90;;;;;;5048192;28;20547;-67
2022/09/09 00:26:07;;;;;;;2.53;1.00;;;18.40;99.90;;;;;;5049111;28;20497;-68
2022/09/09 00:28:39;;;;;;;1.63;1.10;;;18.40;99.90;;;;;;5062147;28;20519;-69
2022/09/09 00:31:12;;;;;;;0.73;0.73;;;18.30;99.90;;;;;;5049508;28;20466;-68
2022/09/09 00:33:39;;;;;;;1.20;1.10;;;18.30;99.90;;;;;;5031738;28;20450;-70
2022/09/09 00:36:15;;;;;;;3.57;1.30;;;18.30;99.90;;;;;;5054779;28;20499;-69
2022/09/09 00:38:47;;;;;;;3.10;1.20;;;18.30;99.90;;;;;;5041405;28;20446;-69
2022/09/09 00:41:30;;;;;;;1.13;1.03;;;18.30;99.90;;;;;;5032601;28;20519;-67
2022/09/09 00:44:36;;;;;;;0.80;0.80;;;18.20;99.90;;;;;;5031580;28;20434;-69
2022/09/09 00:47:25;;;;;;;2.20;0.90;;;18.20;99.90;;;;;;5042765;28;20444;-69
2022/09/09 00:50:01;;;;;;;1.17;0.83;;;18.20;99.90;;;;;;5028181;28;20440;-69
2022/09/09 00:52:45;;;;;;;0.90;0.90;;;18.20;99.90;;;;;;5046141;28;20462;-69
2022/09/09 00:55:40;;;;;;;0.80;0.80;;;18.20;99.90;;;;;;5044341;28;20526;-67
2022/09/09 00:58:08;;;;;;;1.27;0.87;;;18.20;99.90;;;;;;5053034;28;20454;-70
2022/09/09 01:01:00;;;;;;;1.13;0.90;;;18.10;99.90;;;;;;5050700;28;20445;-69
2022/09/09 01:03:34;;;;;;;2.33;1.00;;;18.10;99.90;;;;;;5052175;28;20504;-68
2022/09/09 01:06:28;;;;;;;2.60;0.90;;;18.10;99.90;;;;;;5049583;28;20487;-68
2022/09/09 01:09:05;;;;;;;1.80;1.23;;;18.10;99.90;;;;;;5046531;28;20462;-69
2022/09/09 01:11:31;;;;;;;1.03;1.00;;;18.00;99.90;;;;;;5038383;28;20860;-69
2022/09/09 01:14:25;;;;;;;3.10;1.20;;;18.00;99.90;;;;;;5028506;28;20512;-68
2022/09/09 01:16:54;;;;;;;1.23;1.13;;;18.00;99.90;;;;;;5040161;28;20875;-67
2022/09/09 01:19:39;;;;;;;1.33;1.17;;;18.00;99.90;;;;;;5068506;28;20481;-70
2022/09/09 01:22:35;;;;;;;0.90;0.90;;;18.00;99.90;;;;;;5047125;28;20707;-69
2022/09/09 01:25:40;;;;;;;1.07;0.97;;;17.90;99.90;;;;;;5018341;28;20490;-67
2022/09/09 01:28:19;;;;;;;1.40;1.30;;;17.90;99.90;;;;;;5047246;28;20454;-68
2022/09/09 01:30:45;;;;;;;1.37;0.83;;;17.90;99.90;;;;;;5048799;28;20445;-69
2022/09/09 01:33:17;;;;;;;0.90;0.90;;;17.90;99.90;;;;;;5049041;28;20478;-69
2022/09/09 01:35:54;;;;;;;1.37;0.83;;;17.90;99.90;;;;;;5048567;28;20511;-68
2022/09/09 01:38:24;;;;;;;0.90;0.90;;;17.80;99.90;;;;;;5065970;28;20465;-68
2022/09/09 01:40:52;;;;;;;1.53;1.00;;;17.80;99.90;;;;;;5051210;28;20458;-68
2022/09/09 01:43:21;;;;;;;2.10;1.07;;;17.90;99.90;;;;;;5045017;28;20453;-68
2022/09/09 01:45:49;;;;;;;2.50;1.37;;;17.80;99.90;;;;;;5034230;28;20442;-69
2022/09/09 01:48:16;;;;;;;1.27;0.90;;;17.90;99.90;;;;;;5044610;28;20521;-68
2022/09/09 01:50:51;;;;;;;1.07;0.97;;;17.80;99.90;;;;;;5035829;28;20465;-68
2022/09/09 01:53:19;;;;;;;1.20;1.00;;;17.70;99.90;;;;;;5049226;28;20542;-69
2022/09/09 01:55:59;;;;;;;1.13;1.03;;;17.70;99.90;;;;;;5050985;28;20595;-69
2022/09/09 01:58:56;;;;;;;2.97;0.93;;;17.70;99.90;;;;;;5034216;28;20491;-68
2022/09/09 02:01:29;;;;;;;1.40;1.00;;;17.70;99.90;;;;;;5029379;28;20470;-68
2022/09/09 02:03:58;;;;;;;1.53;0.80;;;17.70;99.90;;;;;;5028340;28;20460;-68
2022/09/09 02:06:33;;;;;;;0.60;0.60;;;17.70;99.90;;;;;;5039825;28;20534;-68
2022/09/09 02:09:11;;;;;;;1.77;1.37;;;17.70;99.90;;;;;;5055386;28;20550;-68
2022/09/09 02:11:38;;;;;;;1.73;1.03;;;17.70;99.90;;;;;;5040765;28;20462;-68
2022/09/09 02:14:20;;;;;;;1.07;0.97;;;17.70;99.90;;;;;;5047111;28;20454;-68
2022/09/09 02:16:52;;;;;;;0.80;0.80;;;17.60;99.90;;;;;;5050469;28;20512;-68
2022/09/09 02:19:26;;;;;;;1.17;1.07;;;17.60;99.90;;;;;;5050601;28;21012;-68
2022/09/09 02:22:01;;;;;;;5.77;1.00;;;17.60;99.90;;;;;;5050928;28;20517;-69
2022/09/09 02:24:40;;;;;;;1.60;1.00;;;17.60;99.90;;;;;;5051171;28;20445;-68
2022/09/09 02:27:16;;;;;;;1.30;1.17;;;17.60;99.90;;;;;;5033172;28;20455;-69
2022/09/09 02:29:45;;;;;;;0.90;0.90;;;17.60;99.90;;;;;;5045923;28;20434;-68
2022/09/09 02:32:17;;;;;;;1.47;1.27;;;17.50;99.90;;;;;;5051458;28;20490;-69
2022/09/09 02:34:50;;;;;;;1.40;1.30;;;17.50;99.90;;;;;;5050345;28;20447;-68
2022/09/09 02:37:20;;;;;;;1.23;1.03;;;17.50;99.90;;;;;;5045531;28;20466;-68
2022/09/09 02:39:48;;;;;;;2.47;1.10;;;17.50;99.90;;;;;;5049927;28;20454;-68
2022/09/09 02:42:18;;;;;;;1.00;1.00;;;17.50;99.90;;;;;;5031569;28;20483;-68
2022/09/09 02:44:45;;;;;;;2.10;1.20;;;17.50;99.90;;;;;;5049423;28;20454;-68
2022/09/09 02:47:43;;;;;;;0.90;0.90;;;17.40;99.90;;;;;;5045189;28;21040;-69
2022/09/09 02:50:59;;;;;;;1.70;1.60;;;17.40;99.90;;;;;;5033194;28;20508;-69
2022/09/09 02:53:44;;;;;;;1.20;1.10;;;17.40;99.90;;;;;;5011692;28;20543;-69
2022/09/09 02:56:16;;;;;;;3.90;1.23;;;17.40;99.90;;;;;;5047358;28;20442;-69
2022/09/09 02:58:45;;;;;;;1.93;1.13;;;17.30;99.90;;;;;;5032835;28;20454;-68
2022/09/09 03:01:10;;;;;;;1.93;1.10;;;17.20;99.90;;;;;;5050286;28;20450;-69
2022/09/09 03:03:36;;;;;;;2.53;1.10;;;17.20;99.90;;;;;;5039754;28;20459;-68
2022/09/09 03:06:07;;;;;;;3.77;1.53;;;17.10;99.90;;;;;;5050826;28;20220;-68
2022/09/09 03:08:33;;;;;;;1.37;1.27;;;17.10;99.90;;;;;;5051065;28;20472;-68
2022/09/09 03:11:02;;;;;;;1.27;1.17;;;17.00;99.90;;;;;;5066737;28;20649;-67
2022/09/09 03:13:31;;;;;;;1.43;1.10;;;17.00;99.90;;;;;;5031689;28;20541;-69
2022/09/09 03:15:57;;;;;;;3.47;1.30;;;17.00;99.90;;;;;;5043372;28;21261;-69
2022/09/09 03:18:24;;;;;;;1.60;1.10;;;17.00;99.90;;;;;;5041009;28;20224;-68
2022/09/09 03:20:53;;;;;;;1.93;1.17;;;17.00;99.90;;;;;;5044127;28;20459;-69
2022/09/09 03:23:21;;;;;;;1.10;1.00;;;17.00;99.90;;;;;;5049678;28;20535;-68
2022/09/09 03:25:48;;;;;;;1.33;1.23;;;17.00;99.90;;;;;;5041017;28;20986;-69
2022/09/09 03:28:15;;;;;;;1.33;1.10;;;17.00;99.90;;;;;;5051041;28;20494;-68
2022/09/09 03:30:42;;;;;;;2.10;1.17;;;17.00;99.90;;;;;;5031584;28;20473;-68
2022/09/09 03:33:08;;;;;;;1.67;1.10;;;17.00;99.90;;;;;;5046694;28;20459;-69
2022/09/09 03:35:34;;;;;;;1.63;1.00;;;17.00;99.90;;;;;;5041745;28;20469;-69
2022/09/09 03:38:00;;;;;;;1.10;1.10;;;17.00;99.90;;;;;;5032281;28;20224;-68
2022/09/09 03:40:27;;;;;;;2.60;1.27;;;16.90;99.90;;;;;;5032100;28;20435;-69
2022/09/09 03:42:53;;;;;;;3.57;1.37;;;16.90;99.90;;;;;;5048246;28;20472;-68
2022/09/09 03:45:18;;;;;;;2.10;0.93;;;16.80;99.90;;;;;;5046667;28;20443;-68
2022/09/09 03:47:44;;;;;;;1.63;1.00;;;16.80;99.90;;;;;;5062437;28;20624;-68
2022/09/09 03:50:10;;;;;;;1.63;1.10;;;16.80;99.90;;;;;;5049057;28;20315;-69
2022/09/09 03:52:42;;;;;;;1.60;1.50;;;16.90;99.90;;;;;;5040499;28;20703;-68
2022/09/09 03:55:13;;;;;;;2.90;2.00;;;16.90;99.90;;;;;;5055192;28;20554;-68
2022/09/09 03:57:39;;;;;;;2.00;1.27;;;16.90;99.90;;;;;;5028768;28;20535;-69
2022/09/09 04:00:08;;;;;;;4.57;1.20;;;16.90;99.90;;;;;;5049175;28;20596;-68
2022/09/09 04:02:53;;;;;;;1.00;1.00;;;16.90;99.90;;;;;;5039947;28;20486;-69
2022/09/09 04:05:19;;;;;;;0.90;0.80;;;16.90;99.90;;;;;;5053417;28;21009;-69
2022/09/09 04:07:47;;;;;;;6.73;2.13;;;16.90;99.90;;;;;;5049562;28;20454;-68
2022/09/09 04:10:13;;;;;;;1.27;1.00;;;17.00;99.90;;;;;;5029098;28;20450;-68
2022/09/09 04:12:39;;;;;;;2.63;1.10;;;17.00;99.90;;;;;;5056854;28;20365;-69
2022/09/09 04:15:05;;;;;;;1.13;1.00;;;17.00;99.90;;;;;;5047392;28;20529;-68
2022/09/09 04:17:32;;;;;;;1.23;1.13;;;17.00;99.90;;;;;;5048275;28;20316;-69
2022/09/09 04:19:58;;;;;;;1.23;1.07;;;17.00;99.90;;;;;;5048893;28;20539;-68
2022/09/09 04:22:24;;;;;;;2.30;1.20;;;17.00;99.90;;;;;;5027817;28;20497;-68
2022/09/09 04:24:49;;;;;;;1.20;1.20;;;16.90;99.90;;;;;;5047785;28;20228;-68
2022/09/09 04:27:18;;;;;;;1.10;0.90;;;17.00;99.90;;;;;;5049976;28;20695;-68
2022/09/09 04:29:43;;;;;;;1.83;1.10;;;16.90;99.90;;;;;;5038768;28;20455;-67
2022/09/09 04:32:10;;;;;;;2.93;1.30;;;16.90;99.90;;;;;;5045945;28;20219;-68
2022/09/09 04:34:35;;;;;;;2.50;1.37;;;16.80;99.90;;;;;;5043871;28;20718;-69
2022/09/09 04:37:01;;;;;;;9.70;1.57;;;16.80;99.90;;;;;;5044539;28;20529;-67
2022/09/09 04:39:27;;;;;;;5.07;1.10;;;16.80;99.90;;;;;;5031696;28;20223;-68
2022/09/09 04:41:53;;;;;;;2.70;1.63;;;16.70;99.90;;;;;;5050982;28;20945;-68
2022/09/09 04:44:21;;;;;;;2.07;1.20;;;16.70;99.90;;;;;;5062771;28;20224;-68
2022/09/09 04:46:47;;;;;;;2.23;1.10;;;16.70;99.90;;;;;;5043382;28;20460;-68
2022/09/09 04:49:13;;;;;;;1.33;1.13;;;16.60;99.90;;;;;;5032671;28;20463;-68
2022/09/09 04:51:39;;;;;;;1.13;0.90;;;16.60;99.90;;;;;;5024822;28;20307;-69
2022/09/09 04:54:05;;;;;;;4.70;1.67;;;16.60;99.90;;;;;;5047598;28;20314;-69
2022/09/09 04:56:31;;;;;;;2.00;1.03;;;16.60;99.90;;;;;;5048389;28;20212;-69
2022/09/09 04:58:59;;;;;;;1.80;1.17;;;16.60;99.90;;;;;;5038015;28;21009;-68
2022/09/09 05:01:40;;;;;;;1.97;1.10;;;16.60;99.90;;;;;;5033326;28;20466;-69
2022/09/09 05:04:06;;;;;;;4.33;1.20;;;16.60;99.90;;;;;;5034041;28;20558;-69
2022/09/09 05:06:33;;;;;;;4.37;1.53;;;16.60;99.90;;;;;;5042352;28;21042;-68
2022/09/09 05:09:00;;;;;;;6.23;1.37;;;16.60;99.90;;;;;;5061920;28;20512;-68
2022/09/09 05:11:32;;;;;;;2.00;1.27;;;16.60;99.90;;;;;;5046699;28;20809;-69
2022/09/09 05:14:03;;;;;;;1.33;1.00;;;16.60;99.90;;;;;;5026548;28;20505;-68
2022/09/09 05:16:31;;;;;;;1.37;1.17;;;16.60;99.90;;;;;;5046812;28;20457;-68
2022/09/09 05:18:56;;;;;;;1.33;1.23;;;16.60;99.90;;;;;;5031226;28;20445;-69
2022/09/09 05:21:26;;;;;;;1.43;1.00;;;16.70;99.90;;;;;;5031854;28;20442;-69
2022/09/09 05:23:52;;;;;;;1.30;1.20;;;16.70;99.90;;;;;;5028319;28;20451;-69
2022/09/09 05:26:21;;;;;;;1.20;0.93;;;16.70;99.90;;;;;;5047342;28;20461;-69
2022/09/09 05:28:48;;;;;;;0.97;0.97;;;16.70;99.90;;;;;;5014936;28;20534;-70
2022/09/09 05:31:16;;;;;;;2.20;1.30;;;16.70;99.90;;;;;;5014348;28;20454;-68
2022/09/09 05:33:45;;;;;;;1.20;1.10;;;16.70;99.90;;;;;;5043652;28;20989;-68
2022/09/09 05:36:14;;;;;;;8.53;1.77;;;16.70;99.90;;;;;;5032324;28;20457;-69
2022/09/09 05:38:41;;;;;;;1.63;1.20;;;16.80;99.90;;;;;;5041395;28;20446;-68
2022/09/09 05:41:10;;;;;;;3.10;1.20;;;16.70;99.90;;;;;;5048738;28;20453;-70
2022/09/09 05:43:35;;;;;;;2.37;0.97;;;16.70;99.90;;;;;;5043118;28;20463;-68
2022/09/09 05:46:10;;;;;;;4.50;1.30;;;16.80;99.90;;;;;;5067545;28;20450;-69
2022/09/09 05:48:42;;;;;;;1.50;1.40;;;16.80;99.90;;;;;;5034979;28;20449;-69
2022/09/09 05:51:15;;;;;;;1.67;1.17;;;16.80;99.90;;;;;;5051453;28;20457;-69
2022/09/09 05:53:42;;;;;;;3.23;1.77;;;16.80;99.90;;;;;;5062644;28;20471;-69
2022/09/09 05:56:11;;;;;;;1.80;1.30;;;16.80;99.90;;;;;;5044310;28;20451;-68
2022/09/09 05:58:38;;;;;;;9.43;1.53;;;16.70;99.90;;;;;;5057729;28;20458;-68
2022/09/09 06:01:13;;;;;;;1.73;1.23;;;16.70;99.90;;;;;;5048220;28;20454;-68
2022/09/09 06:03:42;;;;;;;1.40;1.30;;;16.70;99.90;;;;;;5059272;28;20453;-69
2022/09/09 06:06:11;;;;;;;1.70;1.47;;;16.70;99.90;;;;;;5047063;28;20446;-69
2022/09/09 06:08:39;;;;;;;1.60;1.30;;;16.80;99.90;;;;;;5042141;28;20462;-69
2022/09/09 06:11:11;;;;;;;2.77;1.37;;;16.80;99.90;;;;;;5054075;28;20451;-69
2022/09/09 06:13:38;;;;;;;1.93;1.23;;;16.80;99.90;;;;;;5058868;28;20474;-70
2022/09/09 06:16:16;;;;;;;2.20;1.47;;;16.80;99.90;;;;;;5058306;28;20451;-69
2022/09/09 06:18:43;;;;;;;1.20;1.10;;;16.80;99.90;;;;;;5037595;28;20472;-69
2022/09/09 06:21:19;;;;;;;2.13;1.50;;;16.90;99.90;;;;;;5043718;28;20462;-69
2022/09/09 06:23:47;;;;;;;2.93;2.00;;;16.90;99.90;;;;;;5036648;28;20450;-70
2022/09/09 06:26:13;;;;;;;2.60;1.73;;;16.90;99.90;;;;;;5038334;28;20991;-69
2022/09/09 06:28:39;;;;;;;2.07;1.53;;;16.90;99.90;;;;;;5031657;28;20458;-69
2022/09/09 06:31:06;;;;;;;1.50;1.40;;;17.00;99.90;;;;;;5045988;28;20217;-69
2022/09/09 06:33:36;;;;;;;2.80;1.80;;;17.00;99.90;;;;;;5041135;28;20583;-68
2022/09/09 06:36:04;;;;;;;2.20;1.67;;;17.00;99.90;;;;;;5043272;28;20493;-69
2022/09/09 06:38:30;;;;;;;1.60;1.50;;;17.00;99.90;;;;;;5044732;28;20867;-69
2022/09/09 06:40:59;;;;;;;2.83;1.37;;;17.00;99.90;;;;;;5025181;28;20539;-69
2022/09/09 06:43:26;;;;;;;2.10;1.53;;;17.00;99.90;;;;;;5045037;28;20458;-69
2022/09/09 06:45:54;;;;;;;4.70;1.60;;;17.00;99.90;;;;;;5047360;28;20458;-67
2022/09/09 06:48:20;;;;;;;2.50;2.20;;;17.10;99.90;;;;;;5043659;28;20477;-68
2022/09/09 06:50:47;;;;;;;1.80;1.70;;;17.10;99.90;;;;;;5032493;28;20462;-68
2022/09/09 06:53:18;;;;;;;1.70;1.60;;;17.10;99.90;;;;;;5041588;28;21020;-70
2022/09/09 06:55:44;;;;;;;3.43;2.00;;;17.10;99.90;;;;;;5036592;28;20942;-69
2022/09/09 06:58:12;;;;;;;3.00;2.70;;;17.10;99.90;;;;;;5041739;28;20515;-67
2022/09/09 07:00:38;;;;;;;2.60;2.40;;;17.10;99.90;;;;;;5046732;28;20526;-69
2022/09/09 07:03:05;;;;;;;4.27;2.23;;;17.10;99.90;;;;;;5041188;28;20223;-69
2022/09/09 07:05:31;;;;;;;3.10;2.80;;;17.20;99.90;;;;;;5039370;28;20446;-69
2022/09/09 07:07:58;;;;;;;3.00;2.70;;;17.20;99.90;;;;;;5041764;28;20445;-69
2022/09/09 07:10:24;;;;;;;4.77;2.70;;;17.20;99.90;;;;;;5036222;28;20442;-70
2022/09/09 07:12:52;;;;;;;5.30;3.00;;;17.30;99.90;;;;;;5030331;28;20462;-69
2022/09/09 07:15:19;;;;;;;3.90;3.10;;;17.30;99.90;;;;;;5054299;28;20586;-70
2022/09/09 07:17:44;;;;;;;3.03;2.77;;;17.30;99.90;;;;;;5036897;28;20514;-68
2022/09/09 07:20:11;;;;;;;3.27;3.07;;;17.40;99.90;;;;;;5034871;28;21031;-69
2022/09/09 07:22:37;;;;;;;4.13;3.73;;;17.40;99.90;;;;;;5061024;28;20219;-70
2022/09/09 07:25:04;;;;;;;2.90;2.70;;;17.40;99.90;;;;;;5038000;28;21033;-68
2022/09/09 07:27:30;;;;;;;5.80;4.10;;;17.40;99.90;;;;;;5036796;28;20216;-68
2022/09/09 07:29:56;;;;;;;6.70;3.83;;;17.50;99.90;;;;;;5035600;28;20509;-70
2022/09/09 07:32:22;;;;;;;4.17;3.70;;;17.50;99.90;;;;;;5036820;28;20467;-69
2022/09/09 07:34:50;;;;;;;5.93;2.77;;;17.50;99.90;;;;;;5052769;28;20461;-69
2022/09/09 07:37:16;;;;;;;3.37;3.10;;;17.60;99.90;;;;;;5036025;28;20489;-69
2022/09/09 07:39:44;;;;;;;3.13;2.90;;;17.60;99.90;;;;;;5043992;28;20545;-70
2022/09/09 07:42:13;;;;;;;5.90;4.00;;;17.70;99.90;;;;;;5042128;28;20477;-69
2022/09/09 07:44:39;;;;;;;4.50;3.10;;;17.70;99.90;;;;;;5038653;28;20479;-69
2022/09/09 07:47:11;;;;;;;3.70;2.70;;;17.80;99.90;;;;;;5025207;28;20451;-69
2022/09/09 07:49:46;;;;;;;3.60;2.70;;;17.80;99.90;;;;;;5037971;28;20959;-68
2022/09/09 07:52:13;;;;;;;4.43;3.20;;;17.90;99.90;;;;;;5054934;28;20466;-69
2022/09/09 07:54:41;;;;;;;3.70;3.40;;;18.00;99.90;;;;;;5038566;28;20452;-70
2022/09/09 07:57:07;;;;;;;3.40;2.90;;;18.00;99.90;;;;;;5037859;28;20450;-69
2022/09/09 07:59:35;;;;;;;2.87;2.67;;;18.00;99.90;;;;;;5059839;28;20243;-70
2022/09/09 08:02:02;;;;;;;3.57;3.27;;;18.00;99.90;;;;;;5032265;28;20447;-70
2022/09/09 08:04:30;;;;;;;4.47;2.43;;;18.10;99.90;;;;;;5040544;28;20466;-66
2022/09/09 08:06:58;;;;;;;4.07;3.10;;;18.10;99.90;;;;;;5038105;28;20505;-70
2022/09/09 08:09:28;;;;;;;6.53;2.80;;;18.20;99.90;;;;;;5036610;28;20830;-70
2022/09/09 08:11:58;;;;;;;3.67;2.90;;;18.20;99.90;;;;;;5029130;28;20450;-69
2022/09/09 08:14:24;;;;;;;3.90;3.33;;;18.30;99.90;;;;;;5038410;28;20474;-68
2022/09/09 08:16:52;;;;;;;4.20;3.40;;;18.30;99.90;;;;;;5056989;28;20792;-69
2022/09/09 08:19:20;;;;;;;4.63;3.50;;;18.30;99.90;;;;;;5036714;28;20451;-69
2022/09/09 08:21:47;;;;;;;4.97;3.73;;;18.40;99.90;;;;;;5050764;28;20454;-69
2022/09/09 08:24:15;;;;;;;5.73;3.30;;;18.40;99.90;;;;;;5038625;28;20794;-70
2022/09/09 08:26:49;;;;;;;4.60;3.07;;;18.50;99.90;;;;;;5036854;28;20533;-69
2022/09/09 08:29:18;;;;;;;5.43;3.10;;;18.50;99.90;;;;;;5039437;28;20461;-70
2022/09/09 08:31:47;;;;;;;6.73;3.67;;;18.60;99.90;;;;;;5042283;28;20533;-69
2022/09/09 08:34:14;;;;;;;4.40;3.10;;;18.60;99.90;;;;;;5049848;28;20447;-69
2022/09/09 08:36:45;;;;;;;3.77;2.63;;;18.60;99.90;;;;;;5025013;28;20876;-69
2022/09/09 08:39:14;;;;;;;5.70;2.77;;;18.60;99.90;;;;;;5038978;28;20482;-70
2022/09/09 08:42:00;;;;;;;6.70;3.27;;;18.70;99.90;;;;;;5038699;28;20443;-69
2022/09/09 08:44:34;;;;;;;3.93;2.60;;;18.80;99.90;;;;;;5054477;28;20473;-68
2022/09/09 08:47:15;;;;;;;5.33;2.30;;;18.90;99.90;;;;;;5043788;28;20974;-69
2022/09/09 08:50:01;;;;;;;5.10;2.40;;;19.00;99.90;;;;;;5045119;28;20969;-69
2022/09/09 08:52:30;;;;;;;2.10;1.90;;;19.00;99.90;;;;;;5030792;28;20818;-68
2022/09/09 08:55:03;;;;;;;3.27;2.60;;;19.00;99.90;;;;;;5037157;28;20577;-68
2022/09/09 08:57:31;;;;;;;8.03;2.23;;;19.10;99.90;;;;;;5043657;28;20463;-69
2022/09/09 08:59:59;;;;;;;3.17;1.83;;;19.20;99.90;;;;;;5034094;28;20456;-69
2022/09/09 09:02:33;;;;;;;4.37;2.67;;;19.20;99.90;;;;;;5050479;28;20470;-69
2022/09/09 09:05:32;;;;;;;4.80;2.10;;;19.20;99.90;;;;;;5027684;28;20446;-70
2022/09/09 09:08:16;;;;;;;7.37;2.50;;;19.20;99.90;;;;;;5024178;28;20475;-69
2022/09/09 09:10:47;;;;;;;2.10;1.90;;;19.30;99.90;;;;;;5037692;28;20466;-68
2022/09/09 09:13:24;;;;;;;4.97;1.77;;;19.40;99.90;;;;;;5038969;28;20470;-69
2022/09/09 09:16:04;;;;;;;2.00;1.60;;;19.50;99.90;;;;;;5026417;28;20523;-68
2022/09/09 09:18:31;;;;;;;2.90;1.70;;;19.60;99.90;;;;;;5054125;28;20461;-70
2022/09/09 09:21:17;;;;;;;2.40;1.60;;;19.70;99.90;;;;;;5055609;28;20451;-69
2022/09/09 09:23:51;;;;;;;3.43;2.40;;;19.80;99.90;;;;;;5032155;28;20450;-69
2022/09/09 09:26:19;;;;;;;1.50;1.40;;;19.90;99.90;;;;;;5042177;28;20465;-69
2022/09/09 09:28:45;;;;;;;1.90;1.50;;;19.90;99.90;;;;;;5027690;28;20470;-69
2022/09/09 09:31:15;;;;;;;2.93;1.70;;;20.00;99.90;;;;;;5036391;28;20490;-69
2022/09/09 09:33:54;;;;;;;3.90;2.13;;;20.20;99.90;;;;;;5054194;28;20485;-69
2022/09/09 09:36:34;;;;;;;5.80;1.90;;;20.30;99.90;;;;;;5048733;28;20469;-70
2022/09/09 09:39:04;;;;;;;2.90;1.90;;;20.40;99.90;;;;;;5020231;28;20542;-69
2022/09/09 09:41:43;;;;;;;2.07;1.90;;;20.50;99.90;;;;;;5036369;28;20557;-69
2022/09/09 09:44:31;;;;;;;2.10;1.83;;;20.60;99.90;;;;;;5058977;28;20463;-69
2022/09/09 09:47:13;;;;;;;1.73;1.60;;;20.70;99.90;;;;;;5027750;28;20458;-69
2022/09/09 09:49:51;;;;;;;3.00;2.23;;;20.80;99.90;;;;;;5039043;28;20827;-69
2022/09/09 09:52:22;;;;;;;2.50;1.63;;;20.80;99.90;;;;;;5055041;28;20462;-69
2022/09/09 09:54:48;;;;;;;2.50;1.60;;;20.80;99.90;;;;;;5036808;28;20483;-69
2022/09/09 09:57:17;;;;;;;1.50;1.40;;;20.70;99.90;;;;;;5037461;28;20946;-69
2022/09/09 09:59:45;;;;;;;2.00;1.70;;;20.70;99.90;;;;;;5025000;28;20223;-70
2022/09/09 10:02:26;;;;;;;2.50;1.83;;;20.80;99.90;;;;;;5054287;28;20628;-69
2022/09/09 10:05:16;;;;;;;2.17;1.63;;;20.80;99.90;;;;;;5043571;28;20451;-70
2022/09/09 10:07:45;;;;;;;2.13;1.40;;;20.80;99.90;;;;;;5028181;28;20997;-68
2022/09/09 10:10:43;;;;;;;1.40;1.30;;;20.90;99.90;;;;;;5036206;28;20476;-69
2022/09/09 10:13:23;;;;;;;5.33;2.93;;;20.80;99.90;;;;;;5019888;28;20449;-68
2022/09/09 10:16:46;;;;;;;4.93;2.03;;;20.80;99.90;;;;;;5034263;28;20957;-69
2022/09/09 10:19:41;;;;;;;2.90;1.77;;;20.80;99.90;;;;;;5037822;28;20442;-69
2022/09/09 10:22:28;;;;;;;1.63;1.53;;;21.00;99.90;;;;;;5058395;28;20496;-68
2022/09/09 10:25:16;;;;;;;3.40;2.00;;;21.10;99.90;;;;;;5043531;28;20439;-69
2022/09/09 10:27:50;;;;;;;2.73;1.87;;;21.20;99.90;;;;;;5038222;28;20557;-69
2022/09/09 10:30:24;;;;;;;1.37;1.27;;;21.30;99.90;;;;;;5040617;28;20557;-69
2022/09/09 10:33:09;;;;;;;4.50;2.00;;;21.40;99.90;;;;;;5040768;28;20463;-68
2022/09/09 10:35:56;;;;;;;2.37;1.67;;;21.50;99.90;;;;;;5043638;28;20458;-69
2022/09/09 10:38:23;;;;;;;2.20;1.80;;;21.70;99.90;;;;;;5042384;28;20474;-68
2022/09/09 10:40:58;;;;;;;2.90;1.30;;;21.80;99.90;;;;;;5026500;28;20505;-69
2022/09/09 10:43:39;;;;;;;1.30;1.20;;;21.80;99.20;;;;;;5043630;28;21027;-68
2022/09/09 10:46:32;;;;;;;2.07;1.50;;;22.00;99.10;;;;;;5052663;28;20455;-70
2022/09/09 10:49:14;;;;;;;1.60;1.50;;;22.10;99.90;;;;;;5040281;28;20530;-68
2022/09/09 10:51:40;;;;;;;1.90;1.37;;;22.20;99.00;;;;;;5045716;28;20463;-69
2022/09/09 10:54:15;;;;;;;2.07;1.87;;;22.20;98.60;;;;;;5034098;28;20458;-69
2022/09/09 10:56:45;;;;;;;5.33;1.70;;;22.30;98.50;;;;;;5033008;28;20235;-69
2022/09/09 10:59:17;;;;;;;1.63;1.53;;;22.40;98.30;;;;;;5028254;28;20462;-69
2022/09/09 11:01:46;;;;;;;4.47;1.87;;;22.40;97.60;;;;;;5039600;28;20455;-67
2022/09/09 11:04:20;;;;;;;2.23;2.00;;;22.60;97.20;;;;;;5039369;28;20478;-69
2022/09/09 11:06:52;;;;;;;2.17;1.70;;;22.60;97.60;;;;;;5037765;28;20473;-69
2022/09/09 11:09:30;;;;;;;2.10;1.90;;;22.70;96.90;;;;;;5037664;28;20482;-69
2022/09/09 11:11:57;;;;;;;3.70;2.10;;;22.80;96.60;;;;;;5038823;28;20565;-69
2022/09/09 11:14:36;;;;;;;1.70;1.60;;;22.80;96.80;;;;;;5040191;28;20451;-70
2022/09/09 11:17:06;;;;;;;2.10;1.60;;;22.90;96.70;;;;;;5033354;28;20450;-69
2022/09/09 11:19:38;;;;;;;2.23;1.70;;;23.00;97.60;;;;;;5034022;28;20455;-69
2022/09/09 11:22:29;;;;;;;1.50;1.40;;;23.10;97.60;;;;;;5032808;28;20457;-69
2022/09/09 11:25:00;;;;;;;2.87;1.07;;;23.20;96.90;;;;;;5032551;28;20451;-69
2022/09/09 11:27:39;;;;;;;2.17;1.57;;;23.30;96.40;;;;;;5055565;28;20465;-69
2022/09/09 11:30:17;;;;;;;3.57;1.70;;;23.20;96.10;;;;;;5029979;28;20504;-69
2022/09/09 11:33:04;;;;;;;1.40;1.30;;;23.20;95.50;;;;;;5032094;28;20469;-69
2022/09/09 11:36:08;;;;;;;2.67;1.77;;;23.10;95.50;;;;;;5056994;28;20466;-69
2022/09/09 11:38:51;;;;;;;1.50;1.40;;;23.00;95.30;;;;;;5021740;28;20474;-71
2022/09/09 11:41:17;;;;;;;1.53;1.10;;;22.90;95.20;;;;;;5035169;28;20461;-68
2022/09/09 11:43:46;;;;;;;4.10;1.70;;;22.90;95.10;;;;;;5029428;28;20797;-69
2022/09/09 11:46:15;;;;;;;1.90;1.60;;;22.80;95.20;;;;;;5037674;28;20454;-70
2022/09/09 11:48:45;;;;;;;1.40;1.30;;;22.80;94.90;;;;;;5043249;28;20469;-68
2022/09/09 11:51:20;;;;;;;1.30;1.20;;;22.70;95.20;;;;;;5053466;28;20469;-69
2022/09/09 11:53:54;;;;;;;4.57;1.20;;;22.70;95.00;;;;;;5044076;28;20465;-69
2022/09/09 11:56:43;;;;;;;2.03;1.17;;;22.50;94.40;;;;;;5046002;28;20461;-69
2022/09/09 11:59:24;;;;;;;1.47;1.23;;;22.40;94.50;;;;;;5036006;28;20455;-68
2022/09/09 12:01:56;;;;;;;3.87;1.50;;;22.20;95.30;;;;;;5056383;28;20649;-68
2022/09/09 12:04:25;;;;;;;2.20;1.30;;;22.10;96.30;;;;;;5035550;28;20454;-69
2022/09/09 12:06:59;;;;;;;4.03;1.47;;;22.00;97.30;;;;;;5038047;28;20462;-68
2022/09/09 12:09:27;;;;;;;1.87;1.23;;;21.90;97.80;;;;;;5036981;28;20549;-69
2022/09/09 12:12:20;;;;;;;2.73;1.50;;;21.60;98.40;;;;;;5034359;28;21529;-69
2022/09/09 12:14:59;;;;;;;3.27;1.77;;;21.50;99.00;;;;;;5040085;28;20472;-70
2022/09/09 12:17:27;;;;;;;1.90;1.30;;;21.40;99.80;;;;;;5019790;28;20451;-69
2022/09/09 12:20:11;;;;;;;1.93;1.37;;;21.30;99.90;;;;;;5055697;28;20501;-69
2022/09/09 12:22:59;;;;;;;2.83;1.27;;;21.30;99.90;;;;;;5035591;28;20466;-69
2022/09/09 12:25:36;;;;;;;2.70;1.00;;;21.30;99.90;;;;;;5043321;28;20454;-69
2022/09/09 12:28:25;;;;;;;3.93;1.27;;;21.30;99.90;;;;;;5044903;28;21038;-67
2022/09/09 12:31:17;;;;;;;2.30;1.40;;;21.20;99.90;;;;;;5047831;28;20455;-68
2022/09/09 12:33:47;;;;;;;2.97;0.83;;;21.10;99.90;;;;;;5040973;28;20545;-69
2022/09/09 12:36:28;;;;;;;4.53;1.07;;;21.10;99.90;;;;;;5042245;28;20466;-67
2022/09/09 12:38:58;;;;;;;1.20;1.10;;;21.10;99.80;;;;;;5042477;28;20457;-69
2022/09/09 12:41:26;;;;;;;2.53;1.53;;;21.00;99.90;;;;;;5054767;28;20443;-68
2022/09/09 12:44:08;;;;;;;2.37;1.10;;;21.00;99.90;;;;;;5033297;28;20463;-68
2022/09/09 12:46:41;;;;;;;0.70;0.70;;;21.00;99.90;;;;;;5048326;28;20454;-69
2022/09/09 12:49:38;;;;;;;0.77;0.73;;;21.10;99.90;;;;;;5039117;28;21104;-68
2022/09/09 12:52:16;;;;;;;2.70;0.87;;;21.10;99.90;;;;;;5059995;28;20467;-68
2022/09/09 12:54:46;;;;;;;1.20;0.80;;;21.20;99.90;;;;;;5043781;28;20836;-68
2022/09/09 12:57:13;;;;;;;0.80;0.80;;;21.30;99.90;;;;;;5049163;28;20478;-67
2022/09/09 12:59:42;;;;;;;1.27;0.80;;;21.30;99.90;;;;;;5034126;28;20511;-70
2022/09/09 13:02:25;;;;;;;0.80;0.70;;;21.40;99.90;;;;;;5031605;28;20455;-69
2022/09/09 13:04:52;;;;;;;0.83;0.60;;;21.50;99.70;;;;;;5044263;28;20501;-69
2022/09/09 13:07:19;;;;;;;3.80;0.83;;;21.50;99.70;;;;;;5042367;28;20450;-69
2022/09/09 13:09:46;;;;;;;0.70;0.60;;;21.60;98.60;;;;;;5051165;28;20478;-71
2022/09/09 13:12:20;;;;;;;0.60;0.60;;;21.80;99.30;;;;;;5033511;28;20490;-68
2022/09/09 13:14:52;;;;;;;1.93;1.00;;;21.80;98.20;;;;;;5049839;28;20450;-70
2022/09/09 13:17:21;;;;;;;0.70;0.70;;;21.80;97.90;;;;;;5048852;28;20953;-68